Time;durP1;ratioP1;P1;durP2;ratioP2;P2;SDS_P1;SDS_P2;PMS_P1;PMS_P2;Temp;Humidity;BMP_temperature;BMP_pressure;BME280_temperature;BME280_humidity;BME280_pressure;Samples;Min_cycle;Max_cycle;Signal;HPM_P1;HPM_P2
2022/08/09 00:02:19;;;;;;;8.27;5.28;;;;;;;25.37;66.72;99360.81;5092666;28;20213;-57
2022/08/09 00:04:45;;;;;;;6.07;5.43;;;;;;;25.32;65.16;99362.06;5092701;28;20195;-58
2022/08/09 00:07:12;;;;;;;5.68;5.20;;;;;;;25.41;64.66;99362.19;5092454;28;20227;-57
2022/08/09 00:09:40;;;;;;;5.57;5.18;;;;;;;25.49;64.24;99357.03;5092586;28;20285;-58
2022/08/09 00:12:08;;;;;;;5.60;5.10;;;;;;;25.48;64.27;99361.50;5092587;28;20195;-58
2022/08/09 00:14:36;;;;;;;5.40;4.95;;;;;;;25.48;64.32;99358.00;5092322;28;20210;-58
2022/08/09 00:17:03;;;;;;;7.90;5.25;;;;;;;25.36;62.69;99359.13;5092716;28;20278;-57
2022/08/09 00:19:30;;;;;;;5.50;5.20;;;;;;;25.25;61.69;99350.34;5092079;28;20195;-58
2022/08/09 00:21:57;;;;;;;8.23;4.80;;;;;;;25.21;59.72;99343.63;5092191;28;20217;-57
2022/08/09 00:24:24;;;;;;;6.50;5.32;;;;;;;25.27;59.43;99347.56;5092357;28;20190;-57
2022/08/09 00:26:51;;;;;;;5.03;4.53;;;;;;;25.28;59.65;99343.91;5092018;28;20215;-58
2022/08/09 00:29:20;;;;;;;6.05;5.43;;;;;;;25.30;59.49;99345.44;5091411;28;20225;-58
2022/08/09 00:31:46;;;;;;;6.32;5.72;;;;;;;25.28;59.88;99346.56;5092162;28;20217;-58
2022/08/09 00:34:13;;;;;;;7.00;6.30;;;;;;;25.29;60.20;99351.72;5092008;28;20195;-58
2022/08/09 00:36:40;;;;;;;8.73;5.78;;;;;;;25.27;60.38;99350.22;5092026;28;20593;-57
2022/08/09 00:39:07;;;;;;;6.93;6.13;;;;;;;25.25;60.75;99349.50;5092009;28;20206;-57
2022/08/09 00:41:34;;;;;;;10.25;6.72;;;;;;;25.20;61.31;99341.94;5091802;28;20762;-59
2022/08/09 00:44:01;;;;;;;8.88;7.03;;;;;;;25.30;61.11;99347.25;5091768;28;20278;-59
2022/08/09 00:46:30;;;;;;;12.52;6.90;;;;;;;25.26;61.39;99352.03;5091736;28;20309;-59
2022/08/09 00:48:57;;;;;;;8.30;7.03;;;;;;;25.21;61.35;99340.13;5091739;28;20195;-60
2022/08/09 00:51:24;;;;;;;8.23;7.38;;;;;;;25.30;61.58;99355.22;5091832;28;20217;-59
2022/08/09 00:53:51;;;;;;;13.35;6.72;;;;;;;25.27;61.62;99352.88;5091815;28;20252;-58
2022/08/09 00:56:19;;;;;;;10.38;6.88;;;;;;;25.24;61.87;99353.13;5091839;28;20213;-57
2022/08/09 00:58:46;;;;;;;10.27;7.30;;;;;;;25.16;62.15;99359.16;5092322;28;20717;-58
2022/08/09 01:01:19;;;;;;;11.00;7.07;;;;;;;25.06;62.96;99349.50;5091405;28;20681;-59
2022/08/09 01:03:54;;;;;;;8.30;7.47;;;;;;;25.03;62.86;99355.94;5091507;28;20283;-57
2022/08/09 01:06:29;;;;;;;14.75;8.10;;;;;;;24.94;63.40;99354.13;5091310;28;20299;-58
2022/08/09 01:09:04;;;;;;;11.63;7.78;;;;;;;24.82;64.09;99347.25;5091662;28;20753;-59
2022/08/09 01:11:47;;;;;;;14.68;8.45;;;;;;;24.83;64.22;99354.22;5091250;28;20195;-60
2022/08/09 01:14:30;;;;;;;10.10;7.15;;;;;;;24.87;64.09;99348.50;5091490;28;20199;-60
2022/08/09 01:17:04;;;;;;;9.82;6.50;;;;;;;24.87;63.67;99345.00;5091151;28;20198;-58
2022/08/09 01:19:43;;;;;;;7.00;6.45;;;;;;;24.90;63.44;99350.03;5091171;28;20577;-58
2022/08/09 01:22:54;;;;;;;6.47;5.90;;;;;;;24.88;63.02;99351.97;5091068;28;20202;-57
2022/08/09 01:25:33;;;;;;;6.55;5.93;;;;;;;24.78;63.92;99351.97;5028639;28;20730;-58
2022/08/09 01:28:03;;;;;;;8.88;5.97;;;;;;;24.59;64.29;99346.66;5028447;28;20231;-58
2022/08/09 01:30:32;;;;;;;8.70;6.35;;;;;;;24.47;65.81;99356.53;5066861;28;20197;-58
2022/08/09 01:33:01;;;;;;;11.88;6.35;;;;;;;24.46;66.56;99356.69;5090831;28;20207;-58
2022/08/09 01:35:36;;;;;;;10.00;6.60;;;;;;;24.32;68.72;99354.41;5090639;28;20640;-58
2022/08/09 01:38:07;;;;;;;8.30;6.45;;;;;;;24.25;69.51;99359.41;5090841;28;20627;-59
2022/08/09 01:40:38;;;;;;;11.63;10.32;;;;;;;24.23;69.39;99362.19;5090928;28;20210;-61
2022/08/09 01:43:07;;;;;;;7.63;6.90;;;;;;;24.12;69.22;99343.69;5110784;28;20234;-59
2022/08/09 01:45:35;;;;;;;7.05;6.32;;;;;;;24.20;67.88;99362.44;5110863;28;20203;-60
2022/08/09 01:48:03;;;;;;;7.22;6.47;;;;;;;24.08;68.45;99349.38;5110898;28;20305;-60
2022/08/09 01:50:31;;;;;;;7.50;6.95;;;;;;;24.12;68.39;99345.50;5110994;28;20190;-58
2022/08/09 01:53:00;;;;;;;6.90;5.97;;;;;;;24.12;68.98;99346.34;5108571;28;20219;-60
2022/08/09 01:55:30;;;;;;;6.85;6.35;;;;;;;24.01;69.59;99346.44;5106210;28;20195;-59
2022/08/09 01:57:58;;;;;;;7.38;6.70;;;;;;;24.02;69.93;99341.97;5107980;28;20186;-58
2022/08/09 02:00:27;;;;;;;8.38;7.03;;;;;;;24.02;69.84;99348.13;5104553;28;20221;-57
2022/08/09 02:02:55;;;;;;;7.72;7.13;;;;;;;24.05;70.23;99347.84;5100115;28;20283;-60
2022/08/09 02:05:24;;;;;;;9.45;7.43;;;;;;;24.04;70.17;99337.41;5098486;28;20203;-58
2022/08/09 02:07:56;;;;;;;7.30;6.90;;;;;;;23.94;71.04;99333.84;5098556;28;20233;-58
2022/08/09 02:10:26;;;;;;;12.93;7.55;;;;;;;23.87;71.80;99333.53;5098636;28;20213;-60
2022/08/09 02:12:55;;;;;;;8.00;7.30;;;;;;;23.84;71.99;99336.44;5098122;28;20194;-57
2022/08/09 02:15:25;;;;;;;12.13;7.50;;;;;;;23.82;72.27;99333.09;5098536;28;20580;-58
2022/08/09 02:17:54;;;;;;;8.00;7.32;;;;;;;23.79;72.43;99336.88;5098563;28;20201;-58
2022/08/09 02:20:21;;;;;;;11.38;7.75;;;;;;;23.75;72.32;99331.94;5098048;28;20282;-57
2022/08/09 02:22:54;;;;;;;8.70;7.88;;;;;;;23.78;71.97;99327.22;5099245;28;20639;-57
2022/08/09 02:25:23;;;;;;;11.00;8.43;;;;;;;23.84;71.49;99333.78;5098074;28;20724;-56
2022/08/09 02:27:54;;;;;;;9.27;8.25;;;;;;;23.85;71.32;99341.63;5098607;28;20610;-57
2022/08/09 02:30:22;;;;;;;9.00;8.20;;;;;;;23.80;71.29;99335.06;5098009;28;20195;-58
2022/08/09 02:32:50;;;;;;;11.63;7.85;;;;;;;23.81;71.18;99339.38;5098510;28;20198;-59
2022/08/09 02:35:23;;;;;;;9.02;8.18;;;;;;;23.82;70.65;99335.72;5099866;28;20202;-59
2022/08/09 02:37:52;;;;;;;8.35;7.35;;;;;;;23.82;70.59;99336.56;5099145;28;20304;-59
2022/08/09 02:40:22;;;;;;;9.00;8.20;;;;;;;23.71;70.81;99335.81;5097546;28;20223;-60
2022/08/09 02:42:51;;;;;;;8.05;7.20;;;;;;;23.74;70.53;99339.06;5098460;28;20614;-60
2022/08/09 02:45:27;;;;;;;10.73;7.30;;;;;;;23.68;71.11;99339.59;5099498;28;20224;-59
2022/08/09 02:47:57;;;;;;;7.82;7.32;;;;;;;23.64;70.55;99337.31;5099321;28;20219;-59
2022/08/09 02:50:28;;;;;;;10.38;6.63;;;;;;;23.56;70.82;99330.03;5097933;28;20202;-58
2022/08/09 02:53:00;;;;;;;7.07;6.65;;;;;;;23.59;69.45;99345.66;5096889;28;20264;-59
2022/08/09 02:55:28;;;;;;;7.15;6.40;;;;;;;23.64;69.64;99348.75;5098679;28;20281;-56
2022/08/09 02:57:58;;;;;;;7.13;6.50;;;;;;;23.61;68.81;99349.03;5099306;28;20277;-57
2022/08/09 03:00:27;;;;;;;5.50;5.15;;;;;;;23.59;68.53;99350.16;5098024;28;20295;-57
2022/08/09 03:02:56;;;;;;;10.32;6.00;;;;;;;23.56;67.76;99353.88;5098039;28;20199;-59
2022/08/09 03:05:23;;;;;;;9.25;5.80;;;;;;;23.59;67.19;99348.31;5097723;28;20203;-59
2022/08/09 03:07:53;;;;;;;5.80;5.30;;;;;;;23.55;66.61;99346.06;5098007;28;20210;-58
2022/08/09 03:10:21;;;;;;;7.60;5.30;;;;;;;23.52;66.10;99339.22;5099343;28;20198;-59
2022/08/09 03:12:49;;;;;;;5.65;5.00;;;;;;;23.49;66.30;99347.38;5094833;28;20436;-56
2022/08/09 03:15:17;;;;;;;6.13;5.25;;;;;;;23.47;65.99;99355.47;5099766;28;20229;-61
2022/08/09 03:17:44;;;;;;;5.38;4.88;;;;;;;23.44;65.64;99354.88;5096195;28;20345;-60
2022/08/09 03:20:14;;;;;;;7.28;5.50;;;;;;;23.43;66.05;99354.06;5096297;28;20227;-57
2022/08/09 03:22:43;;;;;;;6.72;5.65;;;;;;;23.38;66.30;99360.69;5098865;28;20227;-61
2022/08/09 03:25:13;;;;;;;5.65;5.10;;;;;;;23.24;67.21;99355.72;5101106;28;20785;-61
2022/08/09 03:27:41;;;;;;;6.40;5.90;;;;;;;23.23;67.57;99349.59;5100828;28;20625;-61
2022/08/09 03:30:09;;;;;;;6.05;5.50;;;;;;;23.14;67.82;99345.88;5088769;28;20221;-61
2022/08/09 03:32:38;;;;;;;6.53;6.03;;;;;;;23.10;67.38;99347.13;5088862;28;20262;-60
2022/08/09 03:35:05;;;;;;;6.35;5.35;;;;;;;23.04;66.22;99322.94;5088600;28;20667;-61
2022/08/09 03:37:32;;;;;;;6.28;5.70;;;;;;;23.14;65.97;99345.03;5090454;28;20588;-61
2022/08/09 03:39:59;;;;;;;6.55;5.65;;;;;;;23.20;65.90;99346.34;5096750;28;20222;-56
2022/08/09 03:42:28;;;;;;;5.43;4.93;;;;;;;23.33;64.79;99337.25;5098159;28;20242;-58
2022/08/09 03:44:54;;;;;;;5.32;4.93;;;;;;;23.43;63.87;99346.09;5098899;28;20215;-56
2022/08/09 03:47:21;;;;;;;6.32;4.60;;;;;;;23.50;63.66;99343.78;5097280;28;20218;-56
2022/08/09 03:49:51;;;;;;;8.55;5.35;;;;;;;23.57;62.86;99342.31;5092736;28;20258;-60
2022/08/09 03:52:18;;;;;;;5.57;5.18;;;;;;;23.56;62.61;99345.94;5088570;28;20223;-60
2022/08/09 03:54:47;;;;;;;9.63;5.35;;;;;;;23.62;61.98;99329.50;5088739;28;20215;-61
2022/08/09 03:57:15;;;;;;;4.90;4.60;;;;;;;23.84;61.67;99344.41;5087382;28;20587;-61
2022/08/09 03:59:44;;;;;;;5.10;4.72;;;;;;;23.97;60.67;99352.97;5087523;28;20206;-61
2022/08/09 04:02:11;;;;;;;5.03;4.53;;;;;;;24.19;59.72;99350.13;5106195;28;20238;-61
2022/08/09 04:04:38;;;;;;;6.85;4.95;;;;;;;24.71;57.95;99348.22;5099133;28;20732;-60
2022/08/09 04:07:06;;;;;;;5.53;5.00;;;;;;;25.57;54.91;99349.16;5100430;28;20217;-61
2022/08/09 04:09:33;;;;;;;6.18;5.15;;;;;;;26.65;51.50;99355.59;5101171;28;20190;-61
2022/08/09 04:12:19;;;;;;;7.15;5.22;;;;;;;27.71;48.22;99333.41;5099121;28;20686;-62
2022/08/09 04:14:47;;;;;;;9.30;5.97;;;;;;;28.99;45.00;99359.97;5100792;28;20199;-61
2022/08/09 04:17:14;;;;;;;10.48;5.88;;;;;;;30.03;42.57;99370.78;5101648;28;20191;-62
2022/08/09 04:19:41;;;;;;;7.93;5.80;;;;;;;31.03;40.23;99363.78;5100151;28;20286;-60
2022/08/09 04:22:08;;;;;;;6.80;6.20;;;;;;;32.00;38.06;99364.78;5103724;28;20191;-62
2022/08/09 04:24:35;;;;;;;8.70;7.45;;;;;;;32.80;36.64;99354.06;5099873;28;20222;-61
2022/08/09 04:27:02;;;;;;;14.82;12.32;;;;;;;33.66;35.17;99352.97;5099779;28;20229;-61
2022/08/09 04:29:29;;;;;;;8.88;6.13;;;;;;;33.57;35.21;99347.94;5097538;28;20199;-60
2022/08/09 04:31:57;;;;;;;8.00;7.05;;;;;;;34.02;34.48;99349.31;5091395;28;20310;-62
2022/08/09 04:34:24;;;;;;;7.60;6.10;;;;;;;34.30;33.59;99349.28;5091544;28;20218;-63
2022/08/09 04:36:51;;;;;;;9.05;6.32;;;;;;;34.83;32.51;99332.25;5091124;28;20234;-63
2022/08/09 04:39:18;;;;;;;7.05;6.38;;;;;;;36.05;30.95;99353.41;5101615;28;20672;-61
2022/08/09 04:41:45;;;;;;;7.35;6.32;;;;;;;36.08;30.47;99354.88;5100864;28;20310;-62
2022/08/09 04:44:12;;;;;;;9.02;5.57;;;;;;;36.48;29.83;99351.00;5099428;28;20196;-61
2022/08/09 04:46:40;;;;;;;8.25;5.50;;;;;;;36.88;29.62;99356.22;5102307;28;20592;-61
2022/08/09 04:49:08;;;;;;;7.03;5.63;;;;;;;36.94;29.00;99364.28;5101090;28;20215;-61
2022/08/09 04:51:35;;;;;;;5.97;5.50;;;;;;;37.23;28.87;99362.88;5099590;28;20190;-62
2022/08/09 04:54:02;;;;;;;5.88;5.20;;;;;;;37.74;28.49;99359.94;5100581;28;20229;-61
2022/08/09 04:56:30;;;;;;;6.25;5.00;;;;;;;38.62;26.66;99372.34;5096289;28;20191;-61
2022/08/09 04:58:57;;;;;;;5.60;5.18;;;;;;;38.73;27.20;99368.84;5091390;28;20191;-61
2022/08/09 05:01:24;;;;;;;8.68;4.78;;;;;;;39.39;25.66;99376.03;5091603;28;20198;-62
2022/08/09 05:03:51;;;;;;;7.10;4.97;;;;;;;39.48;25.20;99375.47;5108478;28;20194;-61
2022/08/09 05:06:19;;;;;;;9.88;4.32;;;;;;;40.09;24.83;99379.59;5111850;28;20698;-62
2022/08/09 05:08:46;;;;;;;5.28;4.57;;;;;;;39.75;24.83;99361.41;5111917;28;20214;-61
2022/08/09 05:11:13;;;;;;;7.53;4.30;;;;;;;39.67;25.41;99376.19;5111606;28;20200;-62
2022/08/09 05:13:40;;;;;;;4.97;4.63;;;;;;;40.42;24.40;99373.53;5111198;28;20281;-61
2022/08/09 05:16:08;;;;;;;5.38;4.82;;;;;;;40.87;23.94;99372.78;5107294;28;20205;-61
2022/08/09 05:18:36;;;;;;;7.97;5.25;;;;;;;40.56;24.29;99374.06;5111332;28;20281;-61
2022/08/09 05:21:03;;;;;;;7.40;5.10;;;;;;;40.77;24.38;99378.88;5111457;28;20200;-62
2022/08/09 05:23:32;;;;;;;10.95;5.78;;;;;;;41.13;23.98;99379.53;5111510;28;20194;-62
2022/08/09 05:25:59;;;;;;;6.82;5.13;;;;;;;41.30;24.07;99380.41;5111368;28;20288;-61
2022/08/09 05:28:26;;;;;;;6.30;5.45;;;;;;;40.96;24.01;99384.94;5105711;28;20685;-61
2022/08/09 05:30:53;;;;;;;13.07;5.85;;;;;;;40.86;24.13;99380.13;5094946;28;20269;-62
2022/08/09 05:33:20;;;;;;;7.25;4.85;;;;;;;41.15;23.92;99383.69;5091273;28;20657;-63
2022/08/09 05:35:47;;;;;;;9.27;5.55;;;;;;;41.36;23.70;99387.56;5092019;28;20717;-63
2022/08/09 05:38:14;;;;;;;7.55;4.28;;;;;;;41.95;22.84;99375.19;5098501;28;20564;-64
2022/08/09 05:40:42;;;;;;;7.18;5.47;;;;;;;41.63;22.90;99385.03;5099664;28;20233;-64
2022/08/09 05:43:09;;;;;;;13.63;5.25;;;;;;;41.29;23.28;99378.75;5100705;28;20222;-63
2022/08/09 05:45:36;;;;;;;10.63;4.80;;;;;;;41.75;23.17;99383.03;5108782;28;20277;-64
2022/08/09 05:48:04;;;;;;;10.30;4.72;;;;;;;40.70;23.59;99383.66;5110999;28;20222;-62
2022/08/09 05:50:31;;;;;;;10.40;5.38;;;;;;;40.35;23.95;99380.19;5110916;28;20220;-62
2022/08/09 05:52:58;;;;;;;12.15;5.03;;;;;;;40.35;23.83;99381.00;5097082;28;20194;-57
2022/08/09 05:55:25;;;;;;;10.55;5.90;;;;;;;40.17;24.11;99381.97;5090565;28;20195;-61
2022/08/09 05:57:53;;;;;;;8.25;5.25;;;;;;;40.29;24.90;99384.69;5090372;28;20281;-60
2022/08/09 06:00:20;;;;;;;5.57;5.07;;;;;;;40.99;24.63;99379.81;5093268;28;20656;-61
2022/08/09 06:02:47;;;;;;;7.95;7.15;;;;;;;41.36;23.62;99384.00;5101755;28;20222;-63
2022/08/09 06:05:14;;;;;;;10.00;5.20;;;;;;;41.82;23.30;99370.06;5100082;28;20280;-61
2022/08/09 06:07:41;;;;;;;5.93;5.43;;;;;;;41.88;23.59;99360.84;5100601;28;20218;-60
2022/08/09 06:10:09;;;;;;;7.93;5.50;;;;;;;41.61;23.10;99377.09;5098999;28;20194;-61
2022/08/09 06:12:36;;;;;;;7.35;5.15;;;;;;;42.02;24.20;99374.97;5099628;28;20190;-60
2022/08/09 06:15:06;;;;;;;13.57;5.63;;;;;;;42.21;22.99;99381.81;5093049;28;20286;-60
2022/08/09 06:17:33;;;;;;;12.73;5.20;;;;;;;41.98;22.86;99379.31;5090261;28;20234;-59
2022/08/09 06:19:59;;;;;;;6.68;4.97;;;;;;;42.28;21.77;99379.69;5090060;28;20201;-63
2022/08/09 06:22:27;;;;;;;6.68;5.00;;;;;;;42.49;22.22;99383.53;5090048;28;20229;-66
2022/08/09 06:24:53;;;;;;;10.32;5.45;;;;;;;42.57;22.69;99369.41;5089954;28;20303;-65
2022/08/09 06:27:20;;;;;;;7.30;6.65;;;;;;;41.44;22.34;99372.69;5089287;28;20282;-60
2022/08/09 06:29:47;;;;;;;7.30;5.10;;;;;;;40.93;23.33;99367.19;5089770;28;20218;-61
2022/08/09 06:32:16;;;;;;;8.10;5.80;;;;;;;41.36;22.59;99371.22;5089800;28;20755;-62
2022/08/09 06:34:43;;;;;;;6.70;5.03;;;;;;;41.33;22.29;99367.09;5089664;28;20590;-63
2022/08/09 06:37:10;;;;;;;4.85;4.38;;;;;;;41.24;23.32;99365.03;5089812;28;20195;-60
2022/08/09 06:39:36;;;;;;;5.13;4.65;;;;;;;40.85;23.02;99364.88;5089738;28;20660;-60
2022/08/09 06:42:04;;;;;;;8.07;5.10;;;;;;;41.20;22.22;99366.59;5089772;28;20354;-61
2022/08/09 06:44:31;;;;;;;13.13;6.30;;;;;;;40.93;22.86;99366.38;5089947;28;20282;-62
2022/08/09 06:46:58;;;;;;;10.52;6.50;;;;;;;41.30;23.19;99364.06;5089999;28;20194;-61
2022/08/09 06:49:26;;;;;;;11.57;7.63;;;;;;;40.82;22.83;99354.47;5089372;28;20226;-60
2022/08/09 06:51:53;;;;;;;11.38;7.00;;;;;;;40.66;23.16;99360.66;5089766;28;20206;-60
2022/08/09 06:54:20;;;;;;;9.30;8.52;;;;;;;40.67;22.65;99356.03;5101116;28;20292;-59
2022/08/09 06:56:47;;;;;;;14.38;7.95;;;;;;;41.01;23.06;99356.97;5109836;28;20254;-60
2022/08/09 06:59:14;;;;;;;8.63;7.72;;;;;;;40.85;22.53;99354.00;5109817;28;20200;-59
2022/08/09 07:01:41;;;;;;;11.00;8.55;;;;;;;40.81;22.89;99355.53;5109583;28;20190;-60
2022/08/09 07:04:08;;;;;;;16.10;8.90;;;;;;;41.29;22.17;99349.59;5110168;28;20202;-61
2022/08/09 07:06:36;;;;;;;13.15;8.45;;;;;;;41.24;22.22;99365.03;5109793;28;20201;-60
2022/08/09 07:09:03;;;;;;;11.13;7.47;;;;;;;41.05;22.31;99363.59;5110195;28;20597;-60
2022/08/09 07:11:30;;;;;;;8.57;6.88;;;;;;;40.13;23.02;99364.47;5109772;28;20277;-60
2022/08/09 07:13:57;;;;;;;11.10;6.25;;;;;;;39.88;23.35;99347.59;5109835;28;20588;-59
2022/08/09 07:16:24;;;;;;;13.48;6.72;;;;;;;40.04;23.73;99365.91;5109540;28;20194;-60
2022/08/09 07:18:51;;;;;;;8.43;6.50;;;;;;;39.98;23.56;99364.13;5109891;28;20198;-61
2022/08/09 07:21:18;;;;;;;8.30;6.38;;;;;;;40.25;22.96;99353.56;5109692;28;20646;-61
2022/08/09 07:23:47;;;;;;;10.20;6.70;;;;;;;39.65;23.93;99353.03;5103382;28;20726;-60
2022/08/09 07:26:14;;;;;;;11.00;6.10;;;;;;;40.38;23.35;99355.22;5099636;28;20195;-61
2022/08/09 07:28:41;;;;;;;6.88;6.22;;;;;;;40.27;23.45;99356.88;5099029;28;20242;-59
2022/08/09 07:31:08;;;;;;;6.68;5.85;;;;;;;40.73;23.04;99353.22;5103390;28;20198;-61
2022/08/09 07:33:35;;;;;;;12.68;6.88;;;;;;;41.34;22.40;99367.91;5096432;28;20673;-62
2022/08/09 07:36:02;;;;;;;9.13;6.25;;;;;;;41.02;21.96;99366.78;5089381;28;20203;-60
2022/08/09 07:38:29;;;;;;;10.20;6.90;;;;;;;40.37;23.16;99369.88;5091485;28;20208;-61
2022/08/09 07:40:57;;;;;;;9.27;6.13;;;;;;;40.28;22.93;99374.06;5092947;28;20248;-61
2022/08/09 07:43:24;;;;;;;7.68;6.35;;;;;;;40.26;22.68;99368.81;5092834;28;20234;-60
2022/08/09 07:45:51;;;;;;;9.35;6.20;;;;;;;39.39;23.00;99366.00;5093148;28;20226;-62
2022/08/09 07:48:18;;;;;;;10.55;6.10;;;;;;;38.40;24.39;99353.81;5092772;28;20305;-60
2022/08/09 07:50:45;;;;;;;7.07;6.35;;;;;;;38.82;24.17;99362.88;5092988;28;20301;-60
2022/08/09 07:53:12;;;;;;;6.38;5.60;;;;;;;38.94;23.40;99362.09;5092697;28;20197;-62
2022/08/09 07:55:39;;;;;;;6.82;5.55;;;;;;;39.55;23.04;99368.03;5092466;28;20230;-61
2022/08/09 07:58:07;;;;;;;6.35;5.85;;;;;;;40.78;21.78;99368.81;5092776;28;20317;-68
2022/08/09 08:00:34;;;;;;;9.85;5.63;;;;;;;42.03;20.81;99358.38;5112902;28;20256;-68
2022/08/09 08:03:02;;;;;;;12.73;5.45;;;;;;;42.57;19.89;99360.41;5111936;28;20226;-69
2022/08/09 08:05:30;;;;;;;7.45;5.57;;;;;;;42.95;20.64;99371.22;5096959;28;20368;-69
2022/08/09 08:07:56;;;;;;;10.70;4.60;;;;;;;43.68;19.32;99366.13;5092055;28;20309;-68
2022/08/09 08:10:23;;;;;;;4.60;4.20;;;;;;;44.30;18.77;99370.84;5092171;28;20598;-59
2022/08/09 08:12:50;;;;;;;8.60;4.80;;;;;;;44.88;17.72;99366.94;5104134;28;20313;-60
2022/08/09 08:15:20;;;;;;;5.85;4.45;;;;;;;44.69;17.40;99374.00;5112367;28;20632;-59
2022/08/09 08:17:50;;;;;;;7.32;4.88;;;;;;;44.52;18.56;99368.75;5111959;28;20208;-61
2022/08/09 08:20:17;;;;;;;7.45;5.22;;;;;;;44.77;18.62;99363.38;5112733;28;20197;-60
2022/08/09 08:22:45;;;;;;;8.70;5.13;;;;;;;44.29;18.04;99364.53;5112687;28;20205;-69
2022/08/09 08:25:12;;;;;;;7.68;4.78;;;;;;;43.20;17.82;99365.19;5112557;28;20198;-68
2022/08/09 08:27:39;;;;;;;6.78;4.78;;;;;;;43.45;18.04;99356.38;5106380;28;20205;-69
2022/08/09 08:30:06;;;;;;;5.72;5.20;;;;;;;43.54;18.94;99356.69;5090904;28;20737;-68
2022/08/09 08:32:35;;;;;;;8.55;4.72;;;;;;;43.66;17.83;99362.81;5090656;28;20694;-67
2022/08/09 08:35:02;;;;;;;4.85;4.40;;;;;;;42.50;18.65;99351.59;5093631;28;20667;-60
2022/08/09 08:37:29;;;;;;;8.15;5.30;;;;;;;41.16;20.08;99357.28;5101224;28;20198;-61
2022/08/09 08:39:56;;;;;;;7.28;4.38;;;;;;;41.47;18.96;99353.97;5099797;28;20193;-61
2022/08/09 08:42:23;;;;;;;5.88;4.53;;;;;;;41.99;18.70;99342.78;5099612;28;20225;-61
2022/08/09 08:44:56;;;;;;;5.78;4.55;;;;;;;42.44;18.53;99352.63;5102618;28;20197;-61
2022/08/09 08:47:23;;;;;;;6.35;4.20;;;;;;;42.37;18.45;99345.47;5106765;28;20194;-68
2022/08/09 08:49:53;;;;;;;4.82;4.30;;;;;;;42.57;18.29;99338.56;5108715;28;20214;-68
2022/08/09 08:52:24;;;;;;;5.93;4.22;;;;;;;41.87;19.15;99325.69;5108974;28;20190;-60
2022/08/09 08:54:52;;;;;;;9.88;9.13;;;;;;;41.07;18.97;99326.88;5109503;28;20194;-61
2022/08/09 08:57:19;;;;;;;9.82;6.00;;;;;;;40.66;19.42;99325.28;5108399;28;20202;-69
2022/08/09 08:59:46;;;;;;;6.32;4.47;;;;;;;40.37;19.33;99323.66;5099686;28;20277;-69
2022/08/09 09:02:22;;;;;;;6.75;4.78;;;;;;;40.42;20.56;99307.41;5100865;28;20654;-69
2022/08/09 09:04:52;;;;;;;15.27;5.45;;;;;;;40.62;20.00;99316.81;5099045;28;20186;-61
2022/08/09 09:07:20;;;;;;;8.45;4.65;;;;;;;40.38;19.81;99317.97;5098222;28;20286;-61
2022/08/09 09:09:48;;;;;;;5.63;4.78;;;;;;;40.44;19.97;99327.03;5098534;28;20242;-61
2022/08/09 09:12:16;;;;;;;5.45;4.30;;;;;;;40.63;20.58;99315.69;5099166;28;20191;-61
2022/08/09 09:14:44;;;;;;;8.88;4.30;;;;;;;40.68;19.60;99306.00;5096450;28;20281;-60
2022/08/09 09:17:11;;;;;;;4.60;4.20;;;;;;;40.51;19.91;99300.53;5098763;28;20193;-62
2022/08/09 09:19:38;;;;;;;6.38;4.65;;;;;;;40.35;19.82;99301.28;5099182;28;20270;-60
2022/08/09 09:22:08;;;;;;;5.90;4.18;;;;;;;40.65;19.65;99288.25;5099995;28;20217;-61
2022/08/09 09:24:37;;;;;;;4.28;3.88;;;;;;;40.99;18.33;99297.31;5098518;28;20283;-60
2022/08/09 09:27:06;;;;;;;4.00;3.80;;;;;;;41.32;18.84;99296.50;5090991;28;20206;-61
2022/08/09 09:29:35;;;;;;;6.45;3.70;;;;;;;40.45;18.71;99288.72;5090530;28;20218;-61
2022/08/09 09:32:03;;;;;;;5.15;3.58;;;;;;;40.35;19.19;99283.09;5090830;28;20584;-61
2022/08/09 09:34:30;;;;;;;5.57;3.65;;;;;;;40.90;19.03;99287.91;5103321;27;20648;-60
2022/08/09 09:36:58;;;;;;;4.35;3.67;;;;;;;41.02;18.25;99280.47;5109515;28;20225;-63
2022/08/09 09:39:29;;;;;;;6.10;3.90;;;;;;;40.77;18.45;99280.06;5109857;28;20236;-61
2022/08/09 09:41:57;;;;;;;4.60;3.58;;;;;;;40.24;18.53;99276.59;5109275;28;20234;-62
2022/08/09 09:44:27;;;;;;;8.02;4.15;;;;;;;39.56;19.27;99274.59;5109493;28;20739;-61
2022/08/09 09:46:57;;;;;;;7.18;3.88;;;;;;;39.16;20.03;99269.03;5109724;28;20222;-67
2022/08/09 09:49:25;;;;;;;5.65;3.35;;;;;;;38.95;19.34;99280.41;5108859;28;20221;-66
2022/08/09 09:52:02;;;;;;;5.00;3.42;;;;;;;38.72;19.36;99283.91;5109594;28;20214;-67
2022/08/09 09:54:37;;;;;;;7.00;3.80;;;;;;;38.28;20.68;99271.56;5098913;28;20217;-66
2022/08/09 09:57:16;;;;;;;7.20;3.60;;;;;;;38.06;20.76;99260.38;5098692;28;20756;-66
2022/08/09 09:59:44;;;;;;;3.22;3.00;;;;;;;37.92;20.54;99266.19;5097829;28;20213;-67
2022/08/09 10:02:11;;;;;;;5.43;3.15;;;;;;;38.33;19.86;99270.91;5096170;28;20321;-67
2022/08/09 10:04:39;;;;;;;10.68;3.20;;;;;;;38.10;19.54;99277.03;5099710;28;20637;-68
2022/08/09 10:07:21;;;;;;;3.40;2.50;;;;;;;37.57;18.71;99271.34;5097838;28;20630;-62
2022/08/09 10:09:52;;;;;;;3.30;3.00;;;;;;;37.29;19.06;99259.13;5097378;28;20607;-63
2022/08/09 10:12:28;;;;;;;4.97;3.20;;;;;;;37.82;17.46;99274.00;5097583;28;20198;-62
2022/08/09 10:15:11;;;;;;;5.80;2.42;;;;;;;37.50;18.39;99259.75;5098250;28;20285;-62
2022/08/09 10:17:39;;;;;;;5.75;3.00;;;;;;;37.26;18.68;99256.03;5104427;28;20233;-62
2022/08/09 10:20:24;;;;;;;9.75;3.00;;;;;;;36.72;19.01;99261.03;5109494;28;20277;-62
2022/08/09 10:22:59;;;;;;;6.53;2.78;;;;;;;37.00;19.48;99262.50;5104986;28;20190;-62
2022/08/09 10:25:28;;;;;;;7.38;3.08;;;;;;;37.30;19.18;99255.38;5093815;28;20236;-62
2022/08/09 10:27:55;;;;;;;3.90;3.00;;;;;;;37.12;18.93;99266.13;5097019;28;20210;-61
2022/08/09 10:30:23;;;;;;;8.27;3.28;;;;;;;36.77;19.55;99254.97;5097121;28;20260;-62
2022/08/09 10:32:51;;;;;;;5.53;3.40;;;;;;;36.37;20.22;99259.75;5098602;28;20190;-66
2022/08/09 10:35:18;;;;;;;4.85;3.50;;;;;;;36.16;20.53;99258.19;5097812;28;20195;-66
2022/08/09 10:37:46;;;;;;;9.80;3.70;;;;;;;35.92;20.88;99264.31;5097017;28;20194;-66
2022/08/09 10:40:13;;;;;;;9.10;3.70;;;;;;;35.56;21.87;99273.72;5096820;28;20191;-67
2022/08/09 10:42:41;;;;;;;6.65;3.58;;;;;;;35.55;22.23;99265.88;5097720;28;20218;-67
2022/08/09 10:45:11;;;;;;;5.50;3.55;;;;;;;35.44;22.74;99258.41;5097366;28;20226;-66
2022/08/09 10:47:48;;;;;;;4.45;3.92;;;;;;;35.17;22.89;99262.97;5098194;28;20282;-67
2022/08/09 10:50:23;;;;;;;10.40;4.30;;;;;;;35.15;23.21;99265.03;5098605;28;20215;-68
2022/08/09 10:53:08;;;;;;;5.38;4.30;;;;;;;35.03;23.59;99256.75;5097737;28;20655;-67
2022/08/09 10:55:36;;;;;;;7.00;4.25;;;;;;;35.08;23.46;99256.97;5096285;28;20257;-61
2022/08/09 10:58:04;;;;;;;3.65;3.28;;;;;;;35.08;23.24;99250.75;5090208;28;20239;-61
2022/08/09 11:00:37;;;;;;;3.90;3.70;;;;;;;35.23;23.80;99241.38;5094388;28;20306;-62
2022/08/09 11:03:20;;;;;;;8.82;4.43;;;;;;;35.14;23.91;99247.19;5089502;28;20695;-61
2022/08/09 11:06:18;;;;;;;5.38;3.70;;;;;;;34.98;23.68;99245.75;5089175;28;20199;-62
2022/08/09 11:08:46;;;;;;;9.27;3.55;;;;;;;34.88;23.20;99250.72;5089271;28;20199;-61
2022/08/09 11:11:13;;;;;;;4.30;3.15;;;;;;;35.04;23.15;99258.41;5089411;28;20818;-61
2022/08/09 11:13:42;;;;;;;4.20;3.38;;;;;;;35.15;23.51;99240.75;5092506;28;20241;-61
2022/08/09 11:16:31;;;;;;;3.53;3.10;;;;;;;35.54;23.34;99242.59;5093541;28;20203;-62
2022/08/09 11:18:59;;;;;;;9.75;4.18;;;;;;;35.34;23.07;99234.53;5093225;28;20238;-61
2022/08/09 11:21:57;;;;;;;7.85;4.90;;;;;;;35.36;23.77;99234.31;5093415;28;20195;-61
2022/08/09 11:24:24;;;;;;;5.10;4.43;;;;;;;35.25;23.53;99255.50;5093170;28;20757;-62
2022/08/09 11:26:51;;;;;;;4.88;4.47;;;;;;;35.24;23.79;99234.09;5093472;28;20195;-61
2022/08/09 11:29:53;;;;;;;6.40;4.43;;;;;;;35.17;23.79;99241.38;5093226;28;20977;-63
2022/08/09 11:32:41;;;;;;;5.05;4.65;;;;;;;34.86;24.04;99233.94;5081471;28;20195;-68
2022/08/09 11:35:14;;;;;;;7.38;5.50;;;;;;;34.75;24.96;99243.47;5093449;28;20207;-63
2022/08/09 11:37:41;;;;;;;6.00;5.60;;;;;;;34.50;24.67;99235.13;5092623;28;20195;-69
2022/08/09 11:40:11;;;;;;;6.32;5.80;;;;;;;34.55;24.83;99245.25;5092441;28;20206;-61
2022/08/09 11:42:40;;;;;;;7.78;6.57;;;;;;;34.42;25.62;99245.25;5092271;28;20643;-63